.
WxDataArchive / Data Records for 2015-03-09
2015-03-08 March 2015 2015-03-10

Data Records for Monday, 09 March 2015

Time	Temp	Chill	HIndex	Humid	Dewpt	 Wind 	HiWind	WindDir	Rain 	Barom
-----	----	-----	------	-----	-----	------	------	-------	-----	-----
00:00	38.8	38.8	38.8	66	28.4	0	2	248	0.00	30.133 
00:05	39.1	39.1	39.1	64	28.0	0	2	248	0.00	30.133 
00:10	39.3	39.3	39.3	63	27.8	0	1	248	0.00	30.133 
00:15	39.5	39.5	39.5	62	27.6	0	2	248	0.00	30.129 
00:20	39.8	39.8	39.8	61	27.5	0	2	248	0.00	30.129 
00:25	39.8	39.8	39.8	60	27.1	0	3	248	0.00	30.129 
00:30	39.8	39.8	39.8	60	27.1	0	0	---	0.00	30.132 
00:35	39.8	39.8	39.8	61	27.5	0	1	248	0.00	30.132 
00:40	39.6	39.6	39.6	61	27.3	0	1	248	0.00	30.132 
00:45	39.5	39.5	39.5	61	27.2	0	1	248	0.00	30.128 
00:50	39.2	39.2	39.2	62	27.3	0	1	248	0.00	30.128 
00:55	39.1	39.1	39.1	62	27.2	0	0	---	0.00	30.128 
01:00	38.8	38.8	38.8	62	26.9	0	1	248	0.00	30.130 
01:05	38.6	38.6	38.6	63	27.1	0	1	248	0.00	30.130 
01:10	38.3	38.3	38.3	64	27.2	0	0	---	0.00	30.130 
01:15	38.0	38.0	38.0	65	27.3	0	0	---	0.00	30.134 
01:20	37.8	37.8	37.8	65	27.1	0	0	---	0.00	30.134 
01:25	37.6	37.6	37.6	66	27.3	0	1	248	0.00	30.134 
01:30	37.3	37.3	37.3	66	27.0	0	0	---	0.00	30.135 
01:35	37.0	37.0	37.0	67	27.1	0	0	---	0.00	30.135 
01:40	36.6	36.6	36.6	67	26.7	0	0	---	0.00	30.135 
01:45	36.2	36.2	36.2	68	26.7	0	0	---	0.00	30.136 
01:50	35.8	35.8	35.8	69	26.6	0	0	---	0.00	30.136 
01:55	35.3	35.3	35.3	70	26.5	0	0	---	0.00	30.136 
02:00	35.0	35.0	35.0	71	26.6	0	0	---	0.00	30.137 
02:05	34.6	34.6	34.6	72	26.5	0	0	---	0.00	30.137 
02:10	34.3	34.3	34.3	72	26.2	0	0	---	0.00	30.137 
02:15	34.0	34.0	34.0	74	26.6	0	0	---	0.00	30.138 
02:20	33.5	33.5	33.5	75	26.4	0	0	---	0.00	30.138 
02:25	33.2	33.2	33.2	75	26.2	0	0	---	0.00	30.138 
02:30	32.9	32.9	32.9	77	26.5	0	0	---	0.00	30.140 
02:35	32.5	32.5	32.5	77	26.1	0	0	---	0.00	30.140 
02:40	32.4	32.4	32.4	77	26.0	0	0	---	0.00	30.140 
02:45	32.1	32.1	32.1	78	26.0	0	0	---	0.00	30.141 
02:50	31.8	31.8	31.8	78	25.7	0	0	---	0.00	30.141 
02:55	31.6	31.6	31.6	78	25.5	0	0	---	0.00	30.141 
03:00	31.3	31.3	31.3	79	25.6	0	0	---	0.00	30.141 
03:05	30.9	30.9	30.9	79	25.2	0	0	---	0.00	30.141 
03:10	30.6	30.6	30.6	80	25.2	0	0	---	0.00	30.141 
03:15	30.3	30.3	30.3	81	25.2	0	0	---	0.00	30.141 
03:20	30.1	30.1	30.1	81	25.0	0	0	---	0.00	30.141 
03:25	29.8	29.8	29.8	81	24.7	0	0	---	0.00	30.141 
03:30	29.7	29.7	29.7	82	24.9	0	0	---	0.00	30.140 
03:35	29.4	29.4	29.4	82	24.6	0	0	---	0.00	30.140 
03:40	29.3	29.3	29.3	83	24.8	0	0	---	0.00	30.140 
03:45	29.1	29.1	29.1	83	24.6	0	0	---	0.00	30.137 
03:50	29.0	29.0	29.0	83	24.5	0	0	---	0.00	30.137 
03:55	28.8	28.8	28.8	84	24.6	0	0	---	0.00	30.137 
04:00	28.7	28.7	28.7	84	24.5	0	0	---	0.00	30.143 
04:05	28.7	28.7	28.7	85	24.8	0	0	---	0.00	30.143 
04:10	28.5	28.5	28.5	85	24.6	0	0	---	0.00	30.143 
04:15	28.4	28.4	28.4	85	24.5	0	0	---	0.00	30.141 
04:20	28.2	28.2	28.2	85	24.3	0	0	---	0.00	30.141 
04:25	28.1	28.1	28.1	85	24.2	0	0	---	0.00	30.141 
04:30	27.8	27.8	27.8	85	23.9	0	0	---	0.00	30.130 
04:35	27.8	27.8	27.8	85	23.9	0	0	---	0.00	30.130 
04:40	27.6	27.6	27.6	86	24.0	0	0	---	0.00	30.130 
04:45	27.5	27.5	27.5	86	23.9	0	0	---	0.00	30.128 
04:50	27.5	27.5	27.5	86	23.9	0	0	---	0.00	30.128 
04:55	27.3	27.3	27.3	86	23.7	0	0	---	0.00	30.128 
05:00	27.2	27.2	27.2	86	23.6	0	0	---	0.00	30.128 
05:05	27.2	27.2	27.2	87	23.9	0	0	---	0.00	30.128 
05:10	27.0	27.0	27.0	87	23.7	0	0	---	0.00	30.128 
05:15	27.0	27.0	27.0	87	23.7	0	0	---	0.00	30.130 
05:20	26.9	26.9	26.9	87	23.6	0	0	---	0.00	30.130 
05:25	26.7	26.7	26.7	87	23.4	0	0	---	0.00	30.130 
05:30	26.6	26.6	26.6	87	23.3	0	0	---	0.00	30.134 
05:35	26.4	26.4	26.4	87	23.1	0	0	---	0.00	30.134 
05:40	26.6	26.6	26.6	88	23.5	0	0	---	0.00	30.134 
05:45	26.4	26.4	26.4	88	23.3	0	0	---	0.00	30.142 
05:50	26.4	26.4	26.4	88	23.3	0	0	---	0.00	30.142 
05:55	26.3	26.3	26.3	88	23.2	0	0	---	0.00	30.142 
06:00	26.3	26.3	26.3	88	23.2	0	0	---	0.00	30.147 
06:05	26.1	26.1	26.1	88	23.0	0	0	---	0.00	30.147 
06:10	26.0	26.0	26.0	88	22.9	0	0	---	0.00	30.147 
06:15	26.0	26.0	26.0	88	22.9	0	0	---	0.00	30.151 
06:20	26.0	26.0	26.0	88	22.9	0	0	---	0.00	30.151 
06:25	25.8	25.8	25.8	88	22.7	0	0	---	0.00	30.151 
06:30	25.8	25.8	25.8	88	22.7	0	0	---	0.00	30.156 
06:35	25.7	25.7	25.7	88	22.6	0	0	---	0.00	30.156 
06:40	25.6	25.6	25.6	88	22.5	0	0	---	0.00	30.156 
06:45	25.4	25.4	25.4	88	22.4	0	0	---	0.00	30.162 
06:50	25.3	25.3	25.3	88	22.3	0	0	---	0.00	30.162 
06:55	25.3	25.3	25.3	89	22.5	0	0	---	0.00	30.162 
07:00	25.1	25.1	25.1	89	22.3	0	0	---	0.00	30.164 
07:05	25.1	25.1	25.1	89	22.3	0	0	---	0.00	30.164 
07:10	25.0	25.0	25.0	89	22.2	0	0	---	0.00	30.164 
07:15	24.8	24.8	24.8	89	22.0	0	0	---	0.00	30.171 
07:20	24.8	24.8	24.8	89	22.0	0	0	---	0.00	30.171 
07:25	24.7	24.7	24.7	89	21.9	0	0	---	0.00	30.171 
07:30	24.7	24.7	24.7	89	21.9	0	0	---	0.00	30.179 
07:35	24.7	24.7	24.7	89	21.9	0	0	---	0.00	30.179 
07:40	24.5	24.5	24.5	89	21.7	0	0	---	0.00	30.179 
07:45	24.5	24.5	24.5	89	21.7	0	0	---	0.00	30.182 
07:50	24.4	24.4	24.4	89	21.6	0	0	---	0.00	30.182 
07:55	24.4	24.4	24.4	89	21.6	0	0	---	0.00	30.182 
08:00	24.4	24.4	24.4	89	21.6	0	0	---	0.00	30.185 
08:05	24.2	24.2	24.2	89	21.4	0	0	---	0.00	30.185 
08:10	24.2	24.2	24.2	89	21.4	0	0	---	0.00	30.185 
08:15	24.2	24.2	24.2	90	21.7	0	0	---	0.00	30.191 
08:20	24.2	24.2	24.2	90	21.7	0	0	---	0.00	30.191 
08:25	24.4	24.4	24.4	90	21.9	0	0	---	0.00	30.191 
08:30	24.5	24.5	24.5	90	22.0	0	0	---	0.00	30.196 
08:35	24.8	24.8	24.8	90	22.3	0	0	---	0.00	30.196 
08:40	25.1	25.1	25.1	90	22.6	0	0	---	0.00	30.196 
08:45	25.4	25.4	25.4	90	22.9	0	0	---	0.00	30.198 
08:50	26.0	26.0	26.0	91	23.7	0	0	---	0.00	30.198 
08:55	26.7	26.7	26.7	92	24.7	0	0	---	0.00	30.198 
09:00	27.5	27.5	27.5	91	25.2	0	0	---	0.00	30.197 
09:05	27.9	27.9	27.9	91	25.6	0	0	---	0.00	30.197 
09:10	28.4	28.4	28.4	91	26.1	0	0	---	0.00	30.197 
09:15	29.4	29.4	29.4	92	27.4	0	0	---	0.00	30.201 
09:20	30.6	30.6	30.6	92	28.6	0	0	---	0.00	30.201 
09:25	31.3	31.3	31.3	91	29.0	0	0	---	0.00	30.201 
09:30	31.8	31.8	31.8	90	29.2	0	0	---	0.00	30.203 
09:35	32.4	32.4	32.4	91	30.1	0	0	---	0.00	30.203 
09:40	33.1	33.1	33.1	90	30.5	0	0	---	0.00	30.203 
09:45	33.7	33.7	33.7	90	31.1	0	0	---	0.00	30.205 
09:50	34.6	34.6	34.6	90	32.0	0	0	---	0.00	30.205 
09:55	35.3	35.3	35.3	89	32.4	0	0	---	0.00	30.205 
10:00	35.9	35.9	35.9	88	32.7	0	0	---	0.00	30.208 
10:05	36.9	36.9	36.9	86	33.1	0	0	---	0.00	30.208 
10:10	37.8	37.8	37.8	82	32.8	0	0	---	0.00	30.208 
10:15	38.8	38.8	38.8	79	32.9	0	1	248	0.00	30.208 
10:20	39.5	39.5	39.5	75	32.2	0	1	248	0.00	30.208 
10:25	40.1	40.1	40.1	72	31.8	0	1	248	0.00	30.208 
10:30	40.8	40.8	40.8	68	31.1	0	2	248	0.00	30.208 
10:35	41.5	41.5	41.5	65	30.6	0	1	248	0.00	30.208 
10:40	42.1	42.1	42.1	63	30.4	0	0	---	0.00	30.208 
10:45	42.8	42.8	42.8	61	30.3	0	1	248	0.00	30.209 
10:50	43.2	43.2	43.2	60	30.3	0	1	248	0.00	30.209 
10:55	43.5	43.5	43.5	58	29.7	0	1	248	0.00	30.209 
11:00	43.8	43.8	43.8	58	30.0	0	1	248	0.00	30.209 
11:05	43.9	43.9	43.9	57	29.7	0	2	248	0.00	30.209 
11:10	44.1	44.1	44.1	56	29.4	0	2	248	0.00	30.209 
11:15	44.3	44.3	44.3	57	30.0	0	0	---	0.00	30.209 
11:20	44.9	44.9	44.9	54	29.3	0	1	248	0.00	30.209 
11:25	45.2	45.2	45.2	54	29.6	0	2	248	0.00	30.209 
11:30	45.2	45.2	45.2	55	30.0	1	3	112	0.00	30.209 
11:35	45.2	45.2	45.2	55	30.0	1	3	112	0.00	30.209 
11:40	44.9	44.9	44.9	56	30.2	1	4	112	0.00	30.209 
11:45	44.9	44.9	44.9	55	29.7	0	4	112	0.00	30.213 
11:50	45.1	45.1	45.1	56	30.4	1	3	112	0.00	30.213 
11:55	45.1	45.1	45.1	54	29.5	0	2	112	0.00	30.213 
12:00	45.5	45.5	45.5	54	29.8	0	3	112	0.00	30.211 
12:05	45.7	45.7	45.7	54	30.0	0	2	112	0.00	30.211 
12:10	46.0	46.0	46.0	53	29.8	0	3	112	0.00	30.211 
12:15	46.4	46.4	46.4	53	30.2	0	2	112	0.00	30.210 
12:20	46.1	46.1	46.1	53	29.9	2	3	112	0.00	30.210 
12:25	45.8	45.8	45.8	53	29.7	0	2	112	0.00	30.210 
12:30	46.0	46.0	46.0	54	30.3	1	2	112	0.00	30.211 
12:35	46.2	46.2	46.2	54	30.5	0	2	112	0.00	30.211 
12:40	46.5	46.5	46.5	53	30.3	1	3	112	0.00	30.211 
12:45	46.5	46.5	46.5	54	30.8	0	2	112	0.00	30.202 
12:50	46.7	46.7	46.7	52	30.0	0	2	112	0.00	30.202 
12:55	46.7	46.7	46.7	53	30.5	1	3	112	0.00	30.202 
13:00	46.7	46.7	46.7	54	30.9	0	2	112	0.00	30.205 
13:05	46.8	46.8	46.8	53	30.6	0	2	112	0.00	30.205 
13:10	46.8	46.8	46.8	53	30.6	1	4	112	0.00	30.205 
13:15	47.3	47.3	47.3	53	31.0	0	1	112	0.00	30.206 
13:20	47.9	47.9	47.9	50	30.2	0	3	112	0.00	30.206 
13:25	48.0	48.0	48.0	51	30.7	0	1	112	0.00	30.206 
13:30	48.0	48.0	48.0	50	30.3	1	2	112	0.00	30.196 
13:35	48.0	48.0	48.0	50	30.3	0	2	112	0.00	30.196 
13:40	47.7	47.7	47.7	50	30.0	1	3	112	0.00	30.196 
13:45	47.6	47.6	47.6	50	29.9	1	4	112	0.00	30.194 
13:50	47.7	47.7	47.7	51	30.5	0	3	112	0.00	30.194 
13:55	48.2	48.2	48.2	50	30.4	0	1	112	0.00	30.194 
14:00	48.3	48.3	48.3	50	30.5	1	3	112	0.00	30.188 
14:05	48.2	48.2	48.2	50	30.4	2	3	112	0.00	30.188 
14:10	47.9	47.9	47.9	50	30.2	1	4	112	0.00	30.188 
14:15	48.0	48.0	48.0	50	30.3	1	3	112	0.00	30.187 
14:20	48.0	48.0	48.0	50	30.3	1	3	112	0.00	30.187 
14:25	48.2	48.2	48.2	51	30.9	1	3	112	0.00	30.187 
14:30	48.5	48.5	48.5	50	30.7	0	3	112	0.00	30.180 
14:35	48.8	48.8	48.8	50	31.0	0	4	112	0.00	30.180 
14:40	48.6	48.6	48.6	49	30.3	1	4	112	0.00	30.180 
14:45	48.5	48.5	48.5	50	30.7	1	2	112	0.00	30.171 
14:50	48.6	48.6	48.6	49	30.3	1	3	112	0.00	30.171 
14:55	48.5	48.5	48.5	50	30.7	1	4	112	0.00	30.171 
15:00	48.5	48.5	48.5	50	30.7	1	4	112	0.00	30.166 
15:05	48.6	48.6	48.6	49	30.3	0	2	112	0.00	30.166 
15:10	48.9	48.9	48.9	49	30.6	0	3	112	0.00	30.166 
15:15	48.9	48.9	48.9	49	30.6	1	5	90	0.00	30.165 
15:20	48.8	48.8	48.8	47	29.5	1	3	90	0.00	30.165 
15:25	48.8	48.8	48.8	47	29.5	1	3	90	0.00	30.165 
15:30	48.8	48.8	48.8	46	28.9	1	5	112	0.00	30.167 
15:35	48.9	48.9	48.9	46	29.0	0	2	112	0.00	30.167 
15:40	49.1	49.1	49.1	44	28.1	1	3	112	0.00	30.167 
15:45	48.9	48.9	48.9	43	27.4	1	5	112	0.00	30.167 
15:50	48.9	48.9	48.9	46	29.0	0	4	90	0.00	30.167 
15:55	49.2	49.2	49.2	46	29.3	0	1	90	0.00	30.167 
16:00	49.4	49.4	49.4	45	29.0	0	3	90	0.00	30.168 
16:05	49.1	49.1	49.1	46	29.2	1	3	90	0.00	30.168 
16:10	48.8	48.8	48.8	48	30.0	1	3	90	0.00	30.168 
16:15	49.1	49.1	49.1	46	29.2	0	3	90	0.00	30.166 
16:20	49.4	49.4	49.4	44	28.4	0	1	90	0.00	30.166 
16:25	49.5	49.5	49.5	44	28.5	0	3	90	0.00	30.166 
16:30	49.4	49.4	49.4	47	30.0	1	3	90	0.00	30.164 
16:35	48.9	48.9	48.9	48	30.1	1	3	90	0.00	30.164 
16:40	48.5	48.5	48.5	49	30.2	2	4	90	0.00	30.164 
16:45	48.3	48.3	48.3	51	31.0	0	1	90	0.00	30.162 
16:50	48.2	48.2	48.2	50	30.4	1	3	90	0.00	30.162 
16:55	48.0	48.0	48.0	50	30.3	0	1	90	0.00	30.162 
17:00	48.0	48.0	48.0	51	30.7	1	2	90	0.00	30.162 
17:05	47.9	47.9	47.9	51	30.7	1	2	90	0.00	30.162 
17:10	47.9	47.9	47.9	51	30.7	0	3	90	0.00	30.162 
17:15	47.9	47.9	47.9	50	30.2	1	4	90	0.00	30.165 
17:20	47.9	47.9	47.9	51	30.7	1	3	90	0.00	30.165 
17:25	47.7	47.7	47.7	50	30.0	1	3	90	0.00	30.165 
17:30	47.7	47.7	47.7	50	30.0	1	2	90	0.00	30.168 
17:35	47.7	47.7	47.7	50	30.0	0	3	90	0.00	30.168 
17:40	47.7	47.7	47.7	50	30.0	0	2	90	0.00	30.168 
17:45	47.9	47.9	47.9	50	30.2	0	2	90	0.00	30.164 
17:50	47.9	47.9	47.9	50	30.2	0	2	90	0.00	30.164 
17:55	47.9	47.9	47.9	50	30.2	1	3	90	0.00	30.164 
18:00	47.9	47.9	47.9	51	30.7	0	1	90	0.00	30.164 
18:05	47.9	47.9	47.9	51	30.7	0	2	90	0.00	30.164 
18:10	47.6	47.6	47.6	51	30.4	0	2	90	0.00	30.164 
18:15	47.4	47.4	47.4	51	30.2	1	3	90	0.00	30.166 
18:20	47.3	47.3	47.3	51	30.1	1	3	90	0.00	30.166 
18:25	47.1	47.1	47.1	51	29.9	0	2	90	0.00	30.166 
18:30	47.0	47.0	47.0	51	29.8	0	2	90	0.00	30.165 
18:35	46.8	46.8	46.8	52	30.1	0	1	90	0.00	30.165 
18:40	46.8	46.8	46.8	52	30.1	1	3	90	0.00	30.165 
18:45	46.7	46.7	46.7	54	30.9	0	3	90	0.00	30.163 
18:50	46.5	46.5	46.5	55	31.2	0	2	90	0.00	30.163 
18:55	46.4	46.4	46.4	55	31.1	0	2	90	0.00	30.163 
19:00	46.2	46.2	46.2	55	30.9	0	2	90	0.00	30.163 
19:05	46.1	46.1	46.1	56	31.3	0	1	90	0.00	30.163 
19:10	45.8	45.8	45.8	56	31.0	0	1	90	0.00	30.163 
19:15	45.4	45.4	45.4	58	31.5	0	1	90	0.00	30.162 
19:20	45.1	45.1	45.1	58	31.2	0	0	---	0.00	30.162 
19:25	44.6	44.6	44.6	59	31.2	0	1	90	0.00	30.162 
19:30	44.2	44.2	44.2	60	31.2	0	0	---	0.00	30.170 
19:35	43.8	43.8	43.8	61	31.2	0	0	---	0.00	30.170 
19:40	43.3	43.3	43.3	61	30.8	0	0	---	0.00	30.170 
19:45	42.9	42.9	42.9	62	30.8	0	0	---	0.00	30.175 
19:50	42.6	42.6	42.6	63	30.9	0	0	---	0.00	30.175 
19:55	42.2	42.2	42.2	64	30.9	0	0	---	0.00	30.175 
20:00	41.9	41.9	41.9	65	31.0	0	0	---	0.00	30.168 
20:05	41.6	41.6	41.6	65	30.7	0	0	---	0.00	30.168 
20:10	41.3	41.3	41.3	66	30.8	0	0	---	0.00	30.168 
20:15	41.1	41.1	41.1	66	30.6	0	0	---	0.00	30.173 
20:20	40.6	40.6	40.6	66	30.1	0	0	---	0.00	30.173 
20:25	40.3	40.3	40.3	68	30.6	0	0	---	0.00	30.173 
20:30	40.1	40.1	40.1	69	30.8	0	1	90	0.00	30.176 
20:35	39.8	39.8	39.8	70	30.8	0	1	90	0.00	30.176 
20:40	39.6	39.6	39.6	71	31.0	0	1	90	0.00	30.176 
20:45	39.6	39.6	39.6	71	31.0	0	1	90	0.00	30.174 
20:50	39.5	39.5	39.5	72	31.2	0	1	90	0.00	30.174 
20:55	39.3	39.3	39.3	72	31.0	0	1	90	0.00	30.174 
21:00	39.1	39.1	39.1	73	31.2	0	0	---	0.00	30.180 
21:05	38.8	38.8	38.8	73	30.9	0	0	---	0.00	30.180 
21:10	38.5	38.5	38.5	73	30.6	0	0	---	0.00	30.180 
21:15	38.2	38.2	38.2	75	31.0	0	0	---	0.00	30.173 
21:20	37.9	37.9	37.9	76	31.0	0	0	---	0.00	30.173 
21:25	37.9	37.9	37.9	77	31.3	0	1	90	0.00	30.173 
21:30	37.9	37.9	37.9	77	31.3	0	1	90	0.00	30.177 
21:35	37.9	37.9	37.9	78	31.7	0	1	90	0.00	30.177 
21:40	37.9	37.9	37.9	78	31.7	0	0	---	0.00	30.177 
21:45	37.8	37.8	37.8	78	31.6	0	0	---	0.00	30.180 
21:50	37.6	37.6	37.6	79	31.7	0	0	---	0.00	30.180 
21:55	37.3	37.3	37.3	80	31.7	0	0	---	0.00	30.180 
22:00	37.3	37.3	37.3	80	31.7	0	0	---	0.00	30.178 
22:05	37.2	37.2	37.2	81	31.9	0	0	---	0.00	30.178 
22:10	37.2	37.2	37.2	82	32.2	0	0	---	0.00	30.178 
22:15	37.2	37.2	37.2	83	32.5	0	0	---	0.00	30.169 
22:20	37.0	37.0	37.0	83	32.3	0	0	---	0.00	30.169 
22:25	36.9	36.9	36.9	84	32.5	0	0	---	0.00	30.169 
22:30	36.8	36.8	36.8	84	32.4	0	0	---	0.00	30.174 
22:35	36.8	36.8	36.8	85	32.7	0	0	---	0.00	30.174 
22:40	36.6	36.6	36.6	86	32.8	0	0	---	0.00	30.174 
22:45	36.6	36.6	36.6	86	32.8	0	0	---	0.00	30.170 
22:50	36.5	36.5	36.5	86	32.7	0	0	---	0.00	30.170 
22:55	36.3	36.3	36.3	87	32.8	0	0	---	0.00	30.170 
23:00	36.2	36.2	36.2	87	32.7	0	0	---	0.00	30.166 
23:05	36.0	36.0	36.0	87	32.5	0	0	---	0.00	30.166 
23:10	35.8	35.8	35.8	87	32.3	0	0	---	0.00	30.166 
23:15	35.5	35.5	35.5	87	32.0	0	0	---	0.00	30.165 
23:20	35.3	35.3	35.3	87	31.8	0	0	---	0.00	30.165 
23:25	35.0	35.0	35.0	88	31.8	0	0	---	0.00	30.165 
23:30	34.9	34.9	34.9	88	31.7	0	0	---	0.00	30.162 
23:35	34.7	34.7	34.7	88	31.5	0	0	---	0.00	30.162 
23:40	34.4	34.4	34.4	88	31.2	0	0	---	0.00	30.162 
23:45	34.3	34.3	34.3	88	31.1	0	0	---	0.00	30.157 
23:50	34.1	34.1	34.1	88	30.9	0	0	---	0.00	30.157 
23:55	34.0	34.0	34.0	88	30.8	0	0	---	0.00	30.157 

CoCoRaHS
IN-AL-39
A2 Web Hosting
Creative Commons License
GoDaddy
search engine by freefind advanced

loaded 2018-11-20 14:36:24 • last modified 2010-11-18 10:43:29
Privacy PolicyDisclaimer
• wx.awcolley.com is powered by PmWiki v.2002016 •
• all content (unless otherwise noted) © 2018 A W Colley